createdAt,value
2018-04-18T00:02:14.580Z,15.33
2018-04-18T00:04:42.928Z,15.29
2018-04-18T00:07:11.260Z,15.27
2018-04-18T00:09:39.622Z,15.22
2018-04-18T00:12:07.954Z,15.18
2018-04-18T00:14:36.309Z,15.11
2018-04-18T00:17:04.645Z,15.01
2018-04-18T00:19:32.996Z,14.99
2018-04-18T00:22:01.324Z,14.99
2018-04-18T00:24:29.680Z,15.01
2018-04-18T00:26:58.012Z,15.03
2018-04-18T00:29:26.369Z,14.99
2018-04-18T00:31:54.709Z,14.90
2018-04-18T00:34:23.061Z,14.85
2018-04-18T00:36:51.392Z,14.83
2018-04-18T00:39:19.749Z,14.76
2018-04-18T00:41:48.086Z,14.77
2018-04-18T00:44:16.442Z,14.76
2018-04-18T00:46:44.772Z,14.71
2018-04-18T00:49:13.135Z,14.71
2018-04-18T00:51:41.464Z,14.65
2018-04-18T00:54:09.828Z,14.62
2018-04-18T00:56:38.157Z,14.62
2018-04-18T00:59:06.492Z,14.59
2018-04-18T01:01:34.849Z,14.55
2018-04-18T01:04:03.181Z,14.49
2018-04-18T01:06:31.536Z,14.41
2018-04-18T01:08:59.872Z,14.37
2018-04-18T01:11:28.223Z,14.37
2018-04-18T01:13:56.552Z,14.32
2018-04-18T01:16:25.489Z,14.26
2018-04-18T01:18:53.820Z,14.25
2018-04-18T01:21:22.169Z,14.24
2018-04-18T01:23:50.505Z,14.24
2018-04-18T01:26:18.861Z,14.21
2018-04-18T01:28:47.189Z,14.22
2018-04-18T01:31:15.543Z,14.21
2018-04-18T01:33:43.875Z,14.21
2018-04-18T01:36:12.220Z,14.19
2018-04-18T01:38:40.556Z,14.21
2018-04-18T01:41:08.904Z,14.17
2018-04-18T01:43:37.236Z,14.14
2018-04-18T01:46:05.584Z,14.12
2018-04-18T01:48:33.921Z,14.11
2018-04-18T01:51:02.268Z,14.10
2018-04-18T01:53:30.605Z,14.06
2018-04-18T01:55:58.952Z,14.04
2018-04-18T01:58:27.294Z,14.02
2018-04-18T02:00:55.640Z,13.99
2018-04-18T02:03:24.004Z,13.93
2018-04-18T02:05:52.335Z,13.92
2018-04-18T02:08:20.668Z,13.90
2018-04-18T02:10:49.017Z,13.88
2018-04-18T02:13:17.353Z,13.87
2018-04-18T02:15:45.708Z,13.84
2018-04-18T02:18:14.057Z,13.81
2018-04-18T02:20:42.402Z,13.79
2018-04-18T02:23:10.728Z,13.74
2018-04-18T02:25:39.085Z,13.70
2018-04-18T02:28:07.412Z,13.62
2018-04-18T02:30:35.767Z,13.59
2018-04-18T02:33:04.089Z,13.58
2018-04-18T02:35:32.432Z,13.58
2018-04-18T02:38:00.764Z,13.57
2018-04-18T02:40:29.113Z,13.57
2018-04-18T02:42:57.446Z,13.57
2018-04-18T02:45:25.801Z,13.55
2018-04-18T02:47:54.129Z,13.52
2018-04-18T02:50:22.497Z,13.45
2018-04-18T02:52:50.833Z,13.43
2018-04-18T02:55:19.193Z,13.42
2018-04-18T02:57:47.520Z,13.38
2018-04-18T03:00:15.852Z,13.31
2018-04-18T03:02:44.196Z,13.20
2018-04-18T03:05:12.535Z,13.17
2018-04-18T03:07:40.896Z,13.15
2018-04-18T03:10:09.224Z,13.13
2018-04-18T03:12:37.584Z,13.09
2018-04-18T03:15:05.925Z,13.10
2018-04-18T03:17:34.325Z,13.07
2018-04-18T03:20:02.623Z,13.04
2018-04-18T03:22:30.972Z,12.96
2018-04-18T03:24:59.315Z,12.92
2018-04-18T03:27:27.688Z,12.88
2018-04-18T03:29:56.017Z,12.86
2018-04-18T03:32:24.381Z,12.84
2018-04-18T03:34:52.717Z,12.75
2018-04-18T03:37:22.065Z,12.70
2018-04-18T03:39:50.408Z,12.74
2018-04-18T03:42:18.752Z,12.66
2018-04-18T03:44:47.080Z,12.66
2018-04-18T03:47:15.429Z,12.61
2018-04-18T03:49:43.776Z,12.54
2018-04-18T03:52:12.120Z,12.61
2018-04-18T03:54:40.448Z,12.69
2018-04-18T03:57:08.805Z,12.72
2018-04-18T03:59:37.130Z,12.73
2018-04-18T04:02:05.477Z,12.75
2018-04-18T04:04:33.808Z,12.78
2018-04-18T04:07:02.161Z,12.80
2018-04-18T04:09:30.493Z,12.79
2018-04-18T04:11:58.843Z,12.69
2018-04-18T04:14:27.176Z,12.63
2018-04-18T04:17:07.315Z,12.65
2018-04-18T04:22:50.433Z,12.43
2018-04-18T04:25:18.767Z,12.46
2018-04-18T04:27:47.113Z,12.52
2018-04-18T04:30:15.453Z,12.52
2018-04-18T04:32:43.812Z,12.55
2018-04-18T04:35:12.149Z,12.57
2018-04-18T04:37:40.495Z,12.57
2018-04-18T04:40:08.829Z,12.59
2018-04-18T04:42:37.189Z,12.59
2018-04-18T04:45:05.541Z,12.62
2018-04-18T04:47:33.873Z,12.62
2018-04-18T04:50:02.206Z,12.61
2018-04-18T04:52:30.563Z,12.60
2018-04-18T04:54:58.901Z,12.64
2018-04-18T04:57:27.261Z,12.65
2018-04-18T04:59:55.593Z,12.73
2018-04-18T05:02:23.948Z,12.75
2018-04-18T05:04:52.273Z,12.85
2018-04-18T05:07:20.641Z,12.96
2018-04-18T05:09:48.980Z,13.03
2018-04-18T05:12:17.345Z,13.08
2018-04-18T05:14:45.668Z,13.14
2018-04-18T05:17:14.029Z,13.28
2018-04-18T05:19:42.352Z,13.38
2018-04-18T05:22:10.709Z,13.45
2018-04-18T05:24:39.045Z,13.44
2018-04-18T05:27:07.401Z,13.58
2018-04-18T05:29:35.725Z,13.68
2018-04-18T05:32:04.085Z,13.80
2018-04-18T05:34:33.673Z,13.96
2018-04-18T05:37:02.282Z,14.09
2018-04-18T05:39:30.612Z,14.22
2018-04-18T05:41:58.965Z,14.36
2018-04-18T05:44:27.294Z,14.49
2018-04-18T05:46:55.676Z,14.77
2018-04-18T05:49:24.006Z,14.69
2018-04-18T05:51:52.331Z,14.66
2018-04-18T05:54:20.680Z,14.77
2018-04-18T05:56:49.016Z,14.78
2018-04-18T05:59:17.371Z,14.87
2018-04-18T06:01:45.712Z,14.95
2018-04-18T06:04:14.069Z,15.07
2018-04-18T06:06:43.360Z,15.16
2018-04-18T06:09:11.716Z,15.41
2018-04-18T06:11:40.053Z,15.57
2018-04-18T06:14:08.413Z,15.77
2018-04-18T06:16:36.745Z,15.87
2018-04-18T06:19:05.128Z,16.12
2018-04-18T06:21:33.444Z,16.38
2018-04-18T06:24:01.797Z,16.60
2018-04-18T06:26:30.132Z,16.73
2018-04-18T06:28:58.505Z,16.95
2018-04-18T06:31:26.837Z,17.20
2018-04-18T06:33:55.187Z,17.38
2018-04-18T06:36:23.788Z,17.43
2018-04-18T06:38:52.129Z,17.54
2018-04-18T06:41:20.456Z,17.70
2018-04-18T06:43:48.815Z,17.98
2018-04-18T06:46:17.145Z,18.28
2018-04-18T06:48:45.500Z,18.29
2018-04-18T06:51:13.846Z,18.35
2018-04-18T06:53:42.184Z,18.37
2018-04-18T06:56:10.512Z,18.43
2018-04-18T06:58:38.864Z,18.48
2018-04-18T07:01:07.207Z,18.57
2018-04-18T07:03:35.556Z,18.65
2018-04-18T07:06:03.892Z,18.73
2018-04-18T07:08:32.240Z,18.55
2018-04-18T07:11:00.574Z,18.59
2018-04-18T07:13:28.929Z,18.51
2018-04-18T07:15:57.260Z,18.41
2018-04-18T07:18:25.604Z,18.52
2018-04-18T07:20:53.933Z,18.62
2018-04-18T07:23:22.317Z,18.75
2018-04-18T07:25:50.652Z,18.79
2018-04-18T07:28:18.998Z,18.79
2018-04-18T07:30:47.328Z,18.70
2018-04-18T07:33:15.684Z,18.61
2018-04-18T07:35:44.016Z,18.58
2018-04-18T07:38:12.369Z,18.62
2018-04-18T07:40:40.700Z,18.64
2018-04-18T07:43:09.052Z,18.65
2018-04-18T07:45:37.383Z,18.70
2018-04-18T07:48:05.763Z,18.76
2018-04-18T07:50:34.093Z,18.81
2018-04-18T07:53:02.416Z,18.88
2018-04-18T07:55:30.768Z,18.96
2018-04-18T07:57:59.105Z,19.04
2018-04-18T08:00:27.461Z,19.06
2018-04-18T08:02:55.789Z,19.06
2018-04-18T08:05:24.147Z,19.09
2018-04-18T08:07:52.476Z,19.09
2018-04-18T08:10:20.824Z,19.14
2018-04-18T08:12:49.158Z,19.17
2018-04-18T08:15:17.565Z,19.28
2018-04-18T08:17:45.837Z,19.39
2018-04-18T08:20:14.198Z,19.34
2018-04-18T08:22:42.524Z,19.26
2018-04-18T08:25:10.880Z,19.32
2018-04-18T08:27:39.220Z,19.45
2018-04-18T08:30:07.569Z,19.53
2018-04-18T08:32:35.900Z,19.54
2018-04-18T08:35:04.248Z,19.52
2018-04-18T08:37:32.576Z,19.55
2018-04-18T08:40:00.935Z,19.60
2018-04-18T08:42:29.261Z,19.69
2018-04-18T08:44:57.616Z,19.70
2018-04-18T08:47:25.953Z,19.83
2018-04-18T08:49:54.319Z,19.89
2018-04-18T08:52:22.648Z,19.95
2018-04-18T08:54:51.009Z,20.09
2018-04-18T08:57:19.341Z,20.19
2018-04-18T08:59:47.688Z,20.30
2018-04-18T09:02:16.016Z,20.33
2018-04-18T09:04:44.368Z,20.41
2018-04-18T09:07:12.709Z,20.55
2018-04-18T09:09:41.166Z,20.60
2018-04-18T09:12:09.493Z,20.65
2018-04-18T09:14:37.824Z,20.67
2018-04-18T09:17:06.180Z,20.88
2018-04-18T09:19:34.532Z,20.97
2018-04-18T09:22:02.869Z,21.08
2018-04-18T09:24:31.222Z,21.12
2018-04-18T09:26:59.557Z,21.20
2018-04-18T09:29:27.909Z,21.29
2018-04-18T09:31:56.240Z,21.24
2018-04-18T09:34:24.589Z,21.27
2018-04-18T09:36:52.925Z,21.28
2018-04-18T09:39:21.277Z,21.35
2018-04-18T09:41:49.604Z,21.37
2018-04-18T09:44:17.964Z,21.40
2018-04-18T09:46:46.293Z,21.47
2018-04-18T09:49:14.652Z,21.62
2018-04-18T09:51:42.980Z,21.70
2018-04-18T09:54:11.315Z,21.78
2018-04-18T09:56:39.669Z,21.78
2018-04-18T09:59:08.001Z,21.72
2018-04-18T10:01:41.912Z,21.87
2018-04-18T10:04:10.247Z,21.96
2018-04-18T10:06:38.600Z,22.04
2018-04-18T10:09:06.933Z,22.10
2018-04-18T10:11:35.289Z,22.04
2018-04-18T10:14:03.621Z,21.99
2018-04-18T10:16:31.973Z,22.18
2018-04-18T10:19:00.301Z,22.18
2018-04-18T10:21:28.656Z,22.25
2018-04-18T10:23:56.994Z,22.32
2018-04-18T10:26:25.349Z,22.44
2018-04-18T10:28:53.686Z,22.52
2018-04-18T10:31:22.042Z,22.67
2018-04-18T10:33:50.369Z,22.76
2018-04-18T10:36:18.724Z,22.78
2018-04-18T10:38:47.062Z,22.78
2018-04-18T10:41:15.416Z,22.72
2018-04-18T10:43:43.752Z,22.78
2018-04-18T10:46:12.104Z,22.79
2018-04-18T10:48:40.432Z,22.78
2018-04-18T10:51:08.786Z,22.91
2018-04-18T10:53:37.117Z,22.97
2018-04-18T10:56:05.472Z,23.00
2018-04-18T10:58:33.863Z,23.16
2018-04-18T11:01:02.160Z,23.13
2018-04-18T11:03:30.489Z,23.22
2018-04-18T11:05:58.913Z,23.29
2018-04-18T11:08:27.181Z,23.37
2018-04-18T11:10:55.529Z,23.28
2018-04-18T11:13:23.863Z,23.27
2018-04-18T11:15:52.212Z,23.35
2018-04-18T11:18:20.545Z,23.40
2018-04-18T11:20:48.896Z,23.33
2018-04-18T11:23:17.228Z,23.44
2018-04-18T11:25:45.585Z,23.50
2018-04-18T11:28:13.925Z,23.69
2018-04-18T11:30:42.276Z,23.73
2018-04-18T11:33:10.609Z,23.79
2018-04-18T11:35:38.961Z,23.79
2018-04-18T11:38:07.287Z,23.79
2018-04-18T11:40:35.641Z,23.81
2018-04-18T11:43:03.978Z,23.91
2018-04-18T11:45:32.346Z,24.00
2018-04-18T11:48:00.665Z,24.05
2018-04-18T11:50:29.021Z,24.06
2018-04-18T11:52:57.357Z,24.10
2018-04-18T11:55:25.684Z,24.16
2018-04-18T11:57:54.044Z,24.23
2018-04-18T12:00:22.381Z,24.22
2018-04-18T12:02:50.733Z,23.98
2018-04-18T12:05:19.069Z,23.96
2018-04-18T12:07:47.424Z,24.15
2018-04-18T12:10:15.760Z,24.28
2018-04-18T12:12:44.118Z,24.42
2018-04-18T12:15:12.440Z,24.46
2018-04-18T12:17:40.793Z,24.43
2018-04-18T12:20:09.137Z,24.48
2018-04-18T12:22:37.484Z,24.62
2018-04-18T12:25:05.825Z,24.58
2018-04-18T12:27:34.180Z,24.55
2018-04-18T12:30:02.516Z,24.56
2018-04-18T12:32:30.876Z,24.63
2018-04-18T12:34:59.224Z,24.70
2018-04-18T12:37:27.594Z,24.81
2018-04-18T12:39:55.933Z,24.65
2018-04-18T12:42:24.293Z,24.57
2018-04-18T12:44:52.639Z,24.65
2018-04-18T12:47:21.932Z,24.76
2018-04-18T12:49:50.265Z,24.88
2018-04-18T12:52:18.624Z,24.98
2018-04-18T12:54:46.956Z,25.12
2018-04-18T12:57:16.258Z,25.29
2018-04-18T12:59:44.589Z,25.34
2018-04-18T13:02:12.945Z,25.13
2018-04-18T13:04:41.277Z,25.02
2018-04-18T13:07:09.641Z,24.98
2018-04-18T13:09:37.984Z,25.08
2018-04-18T13:12:06.341Z,25.18
2018-04-18T13:14:34.684Z,25.20
2018-04-18T13:17:03.045Z,25.31
2018-04-18T13:19:31.389Z,25.37
2018-04-18T13:21:59.768Z,25.38
2018-04-18T13:24:28.108Z,25.39
2018-04-18T13:26:56.687Z,25.41
2018-04-18T13:29:25.332Z,25.38
2018-04-18T13:31:53.876Z,25.38
2018-04-18T13:34:23.306Z,25.60
2018-04-18T13:36:52.661Z,25.93
2018-04-18T13:39:21.012Z,26.05
2018-04-18T13:41:50.101Z,26.11
2018-04-18T13:44:18.437Z,26.10
2018-04-18T13:46:46.806Z,26.16
2018-04-18T13:49:15.155Z,26.29
2018-04-18T13:51:43.521Z,26.38
2018-04-18T13:54:11.864Z,26.39
2018-04-18T13:56:40.248Z,26.37
2018-04-18T13:59:08.625Z,26.43
2018-04-18T14:01:37.005Z,26.53
2018-04-18T14:04:05.369Z,26.56
2018-04-18T14:06:34.688Z,26.52
2018-04-18T14:09:04.165Z,26.53
2018-04-18T14:11:32.621Z,26.57
2018-04-18T14:14:00.987Z,26.57
2018-04-18T14:16:31.161Z,26.56
2018-04-18T14:18:59.548Z,26.57
2018-04-18T14:21:27.888Z,26.58
2018-04-18T14:23:56.240Z,26.58
2018-04-18T14:26:24.576Z,26.71
2018-04-18T14:28:52.941Z,26.72
2018-04-18T14:31:21.278Z,26.63
2018-04-18T14:33:49.632Z,26.56
2018-04-18T14:36:17.969Z,26.53
2018-04-18T14:38:46.328Z,26.47
2018-04-18T14:41:14.673Z,26.50
2018-04-18T14:43:43.024Z,26.50
2018-04-18T14:46:11.369Z,26.51
2018-04-18T14:48:39.724Z,26.50
2018-04-18T14:51:08.077Z,26.43
2018-04-18T14:53:36.446Z,26.36
2018-04-18T14:56:04.784Z,26.31
2018-04-18T14:58:33.143Z,26.29
2018-04-18T15:01:01.730Z,26.34
2018-04-18T15:03:30.093Z,26.38
2018-04-18T15:05:58.432Z,26.42
2018-04-18T15:08:26.797Z,26.51
2018-04-18T15:10:55.136Z,26.50
2018-04-18T15:13:23.501Z,26.42
2018-04-18T15:15:51.844Z,26.38
2018-04-18T15:18:20.205Z,26.33
2018-04-18T15:20:48.549Z,26.31
2018-04-18T15:23:16.913Z,26.35
2018-04-18T15:25:45.264Z,26.28
2018-04-18T15:28:13.621Z,26.30
2018-04-18T15:30:41.957Z,26.35
2018-04-18T15:33:10.313Z,26.32
2018-04-18T15:35:38.663Z,26.32
2018-04-18T15:38:07.026Z,26.36
2018-04-18T15:40:35.369Z,26.36
2018-04-18T15:43:03.745Z,26.33
2018-04-18T15:45:32.100Z,26.18
2018-04-18T15:48:00.472Z,26.05
2018-04-18T15:50:28.853Z,26.04
2018-04-18T15:52:57.197Z,26.03
2018-04-18T15:55:25.545Z,26.07
2018-04-18T15:57:53.910Z,26.06
2018-04-18T16:00:22.262Z,26.03
2018-04-18T16:02:50.613Z,26.00
2018-04-18T16:05:18.974Z,25.96
2018-04-18T16:07:47.326Z,25.98
2018-04-18T16:10:15.693Z,25.97
2018-04-18T16:12:44.061Z,26.00
2018-04-18T16:15:12.412Z,25.94
2018-04-18T16:17:41.658Z,25.90
2018-04-18T16:20:10.026Z,25.88
2018-04-18T16:22:38.375Z,25.79
2018-04-18T16:25:06.737Z,25.75
2018-04-18T16:27:35.073Z,25.78
2018-04-18T16:30:03.504Z,25.81
2018-04-18T16:32:31.876Z,25.76
2018-04-18T16:35:00.160Z,25.68
2018-04-18T16:37:28.500Z,25.64
2018-04-18T16:39:56.883Z,25.60
2018-04-18T16:42:25.217Z,25.59
2018-04-18T16:44:53.575Z,25.52
2018-04-18T16:47:21.917Z,25.49
2018-04-18T16:49:50.277Z,25.46
2018-04-18T16:52:18.624Z,25.44
2018-04-18T16:54:46.989Z,25.41
2018-04-18T16:57:16.297Z,25.40
2018-04-18T16:59:44.659Z,25.34
2018-04-18T17:02:12.997Z,25.30
2018-04-18T17:04:41.360Z,25.31
2018-04-18T17:07:09.705Z,25.31
2018-04-18T17:09:38.062Z,25.26
2018-04-18T17:12:06.402Z,25.22
2018-04-18T17:14:34.756Z,25.15
2018-04-18T17:17:03.596Z,25.09
2018-04-18T17:19:31.961Z,25.10
2018-04-18T17:22:00.296Z,25.04
2018-04-18T17:24:28.652Z,25.05
2018-04-18T17:27:39.514Z,25.04
2018-04-18T17:30:07.875Z,24.96
2018-04-18T17:33:24.574Z,24.92
2018-04-18T17:35:52.924Z,24.82
2018-04-18T17:38:22.061Z,24.74
2018-04-18T17:43:20.637Z,24.53
2018-04-18T17:48:29.040Z,24.47
2018-04-18T17:50:57.409Z,24.43
2018-04-18T17:53:25.752Z,24.34
2018-04-18T17:55:54.129Z,24.23
2018-04-18T17:58:22.468Z,24.14
2018-04-18T18:00:50.833Z,24.07
2018-04-18T18:03:19.167Z,24.04
2018-04-18T18:05:47.525Z,24.00
2018-04-18T18:08:15.863Z,23.94
2018-04-18T18:10:44.225Z,23.89
2018-04-18T18:14:15.740Z,23.79
2018-04-18T18:16:44.068Z,23.74
2018-04-18T18:19:12.433Z,23.71
2018-04-18T18:21:40.772Z,23.67
2018-04-18T18:24:09.100Z,23.58
2018-04-18T18:26:37.469Z,23.45
2018-04-18T18:29:06.000Z,23.32
2018-04-18T18:31:34.396Z,23.23
2018-04-18T18:34:02.685Z,23.08
2018-04-18T18:36:31.041Z,22.90
2018-04-18T18:38:59.376Z,22.83
2018-04-18T18:41:27.734Z,22.74
2018-04-18T18:43:56.077Z,22.68
2018-04-18T18:46:24.539Z,22.60
2018-04-18T18:48:53.829Z,22.55
2018-04-18T18:51:22.192Z,22.51
2018-04-18T18:53:50.529Z,22.51
2018-04-18T18:56:18.889Z,22.54
2018-04-18T18:58:47.224Z,22.61
2018-04-18T19:01:15.585Z,22.62
2018-04-18T19:03:43.921Z,22.60
2018-04-18T19:06:12.285Z,22.52
2018-04-18T19:08:41.164Z,22.41
2018-04-18T19:11:09.529Z,22.30
2018-04-18T19:13:37.868Z,22.18
2018-04-18T19:16:06.229Z,22.05
2018-04-18T19:18:34.572Z,21.97
2018-04-18T19:21:02.948Z,22.78
2018-04-18T19:23:31.298Z,22.22
2018-04-18T19:25:59.645Z,21.98
2018-04-18T19:28:28.007Z,21.87
2018-04-18T19:30:56.349Z,21.78
2018-04-18T19:33:24.726Z,21.68
2018-04-18T19:35:53.089Z,21.61
2018-04-18T19:38:21.438Z,21.53
2018-04-18T19:40:49.801Z,21.49
2018-04-18T19:43:18.145Z,21.45
2018-04-18T19:45:46.505Z,21.41
2018-04-18T19:48:14.857Z,21.35
2018-04-18T19:50:43.217Z,21.32
2018-04-18T19:53:11.555Z,21.29
2018-04-18T19:55:39.908Z,21.20
2018-04-18T19:58:08.252Z,21.07
2018-04-18T20:00:36.612Z,20.82
2018-04-18T20:03:04.957Z,20.67
2018-04-18T20:05:33.338Z,20.61
2018-04-18T20:08:01.666Z,20.52
2018-04-18T20:10:30.034Z,20.40
2018-04-18T20:12:58.403Z,20.44
2018-04-18T20:15:26.771Z,20.45
2018-04-18T20:17:55.114Z,20.37
2018-04-18T20:20:23.469Z,20.39
2018-04-18T20:22:51.801Z,20.30
2018-04-18T20:25:20.146Z,20.14
2018-04-18T20:27:48.506Z,20.08
2018-04-18T20:30:16.996Z,20.02
2018-04-18T20:32:45.357Z,19.90
2018-04-18T20:35:13.703Z,19.81
2018-04-18T20:37:42.080Z,19.72
2018-04-18T20:40:10.427Z,19.67
2018-04-18T20:42:38.781Z,19.64
2018-04-18T20:45:07.118Z,19.61
2018-04-18T20:47:35.486Z,19.60
2018-04-18T20:50:03.853Z,19.55
2018-04-18T20:52:32.213Z,19.54
2018-04-18T20:55:00.549Z,19.57
2018-04-18T20:57:28.909Z,19.55
2018-04-18T21:02:39.614Z,19.48
2018-04-18T21:05:07.986Z,19.44
2018-04-18T21:07:36.309Z,19.40
2018-04-18T21:10:04.642Z,19.33
2018-04-18T21:12:33.000Z,19.23
2018-04-18T21:15:01.328Z,19.13
2018-04-18T21:17:29.685Z,19.08
2018-04-18T21:19:58.017Z,19.06
2018-04-18T21:22:26.364Z,19.07
2018-04-18T21:24:54.696Z,19.02
2018-04-18T21:27:23.052Z,18.95
2018-04-18T21:29:51.380Z,18.85
2018-04-18T21:32:19.736Z,18.74
2018-04-18T21:34:48.072Z,18.72
2018-04-18T21:37:16.416Z,18.67
2018-04-18T21:39:44.750Z,18.65
2018-04-18T21:42:13.104Z,18.61
2018-04-18T21:44:41.441Z,18.62
2018-04-18T21:47:09.796Z,18.66
2018-04-18T21:49:38.125Z,18.69
2018-04-18T21:52:06.478Z,18.62
2018-04-18T21:54:34.804Z,18.56
2018-04-18T21:57:03.149Z,18.51
2018-04-18T21:59:31.484Z,18.51
2018-04-18T22:01:59.837Z,18.50
2018-04-18T22:04:28.168Z,18.46
2018-04-18T22:06:56.521Z,18.40
2018-04-18T22:09:24.848Z,18.32
2018-04-18T22:11:53.201Z,18.31
2018-04-18T22:14:21.533Z,18.31
2018-04-18T22:16:49.947Z,18.30
2018-04-18T22:19:18.209Z,18.29
2018-04-18T22:21:46.564Z,18.29
2018-04-18T22:24:14.893Z,18.20
2018-04-18T22:26:43.245Z,18.11
2018-04-18T22:29:11.576Z,18.07
2018-04-18T22:31:39.931Z,18.04
2018-04-18T22:34:08.257Z,18.01
2018-04-18T22:36:36.585Z,17.92
2018-04-18T22:39:04.936Z,17.93
2018-04-18T22:41:33.267Z,17.94
2018-04-18T22:44:01.620Z,17.95
2018-04-18T22:46:29.943Z,17.91
2018-04-18T22:48:58.300Z,17.91
2018-04-18T22:51:26.637Z,17.87
2018-04-18T22:53:54.984Z,17.81
2018-04-18T22:56:23.317Z,17.80
2018-04-18T22:58:51.664Z,17.77
2018-04-18T23:01:20.002Z,17.75
2018-04-18T23:03:48.352Z,17.72
2018-04-18T23:06:16.686Z,17.76
2018-04-18T23:08:45.036Z,17.81
2018-04-18T23:11:13.373Z,17.85
2018-04-18T23:13:41.737Z,17.91
2018-04-18T23:16:10.064Z,17.93
2018-04-18T23:18:38.421Z,17.92
2018-04-18T23:21:06.752Z,17.86
2018-04-18T23:23:35.112Z,17.83
2018-04-18T23:26:03.441Z,17.79
2018-04-18T23:28:31.797Z,17.71
2018-04-18T23:31:00.125Z,17.70
2018-04-18T23:33:28.477Z,17.69
2018-04-18T23:35:56.813Z,17.64
2018-04-18T23:38:25.160Z,17.60
2018-04-18T23:40:53.487Z,17.49
2018-04-18T23:43:21.849Z,17.36
2018-04-18T23:45:50.185Z,17.24
2018-04-18T23:48:18.532Z,17.19
2018-04-18T23:50:46.860Z,17.15
2018-04-18T23:53:15.217Z,17.15
2018-04-18T23:55:43.546Z,17.12
2018-04-18T23:58:11.909Z,17.07
